Time;durP1;ratioP1;P1;durP2;ratioP2;P2;SDS_P1;SDS_P2;PMS_P1;PMS_P2;Temp;Humidity;BMP_temperature;BMP_pressure;BME280_temperature;BME280_humidity;BME280_pressure;Samples;Min_cycle;Max_cycle;Signal;HPM_P1;HPM_P2
2022/06/30 00:00:46;;;;;;;7.37;3.12;;;;;;;;;;4262093;33;20127;-71
2022/06/30 00:03:12;;;;;;;5.65;2.50;;;;;;;;;;4263228;33;20179;-72
2022/06/30 00:33:21;;;;;;;8.30;2.60;;;;;;;;;;5013753;27;20070;-70
2022/06/30 00:35:48;;;;;;;8.52;2.47;;;;;;;;;;4290236;33;20130;-70
2022/06/30 00:38:15;;;;;;;3.25;2.20;;;;;;;;;;4303527;33;20087;-70
2022/06/30 00:40:43;;;;;;;5.22;2.65;;;;;;;;;;4290030;33;20545;-70
2022/06/30 00:43:10;;;;;;;4.65;2.35;;;;;;;;;;4303500;33;20107;-70
2022/06/30 00:45:43;;;;;;;4.75;2.85;;;;;;;;;;4290050;33;20115;-71
2022/06/30 00:48:10;;;;;;;4.43;2.37;;;;;;;;;;4289991;33;20102;-72
2022/06/30 00:50:36;;;;;;;7.45;2.47;;;;;;;;;;4278330;33;20119;-70
2022/06/30 00:53:04;;;;;;;7.10;2.30;;;;;;;;;;4290177;33;20760;-71
2022/06/30 00:55:30;;;;;;;5.12;2.80;;;;;;;;;;4290367;33;20131;-71
2022/06/30 00:57:59;;;;;;;4.35;2.42;;;;;;;;;;4289970;33;20562;-72
2022/06/30 01:00:28;;;;;;;4.50;2.40;;;;;;;;;;4303257;33;20099;-71
2022/06/30 01:02:55;;;;;;;10.93;3.05;;;;;;;;;;4304282;33;20107;-72
2022/06/30 01:05:21;;;;;;;6.55;2.90;;;;;;;;;;4305890;33;20112;-70
2022/06/30 01:07:48;;;;;;;6.18;2.78;;;;;;;;;;4268349;33;20130;-69
2022/06/30 01:12:58;;;;;;;7.10;2.58;;;;;;;;;;4300159;33;20462;-68
2022/06/30 01:15:24;;;;;;;7.35;2.95;;;;;;;;;;4305340;33;20127;-68
2022/06/30 01:17:50;;;;;;;6.50;2.72;;;;;;;;;;4305504;33;20121;-68
2022/06/30 01:20:19;;;;;;;3.28;2.40;;;;;;;;;;4292163;33;20616;-69
2022/06/30 01:22:45;;;;;;;9.27;3.10;;;;;;;;;;4292131;33;20206;-71
2022/06/30 01:25:11;;;;;;;6.65;3.00;;;;;;;;;;4291837;33;20621;-70
2022/06/30 01:27:38;;;;;;;12.32;3.20;;;;;;;;;;4305614;33;20122;-70
2022/06/30 01:30:04;;;;;;;11.12;3.40;;;;;;;;;;4292001;33;20107;-70
2022/06/30 01:32:30;;;;;;;6.90;3.00;;;;;;;;;;4305569;33;20102;-71
2022/06/30 01:34:57;;;;;;;8.93;3.35;;;;;;;;;;4291552;33;20111;-70
2022/06/30 01:37:24;;;;;;;6.72;3.30;;;;;;;;;;4305300;33;20586;-69
2022/06/30 01:39:50;;;;;;;9.82;3.42;;;;;;;;;;4305267;33;20119;-70
2022/06/30 01:42:16;;;;;;;7.07;3.15;;;;;;;;;;4305098;33;20108;-69
2022/06/30 01:44:42;;;;;;;8.18;3.40;;;;;;;;;;4305021;33;20211;-70
2022/06/30 01:47:11;;;;;;;13.30;3.90;;;;;;;;;;4279869;33;20214;-70
2022/06/30 01:49:37;;;;;;;7.72;3.45;;;;;;;;;;4279592;33;20099;-70
2022/06/30 01:52:04;;;;;;;7.10;3.22;;;;;;;;;;4291638;33;20122;-70
2022/06/30 01:54:30;;;;;;;10.10;3.85;;;;;;;;;;4291701;33;20123;-70
2022/06/30 01:56:56;;;;;;;7.70;3.83;;;;;;;;;;4303757;33;20118;-69
2022/06/30 01:59:22;;;;;;;6.57;3.50;;;;;;;;;;4305208;33;20599;-71
2022/06/30 02:01:48;;;;;;;5.72;3.40;;;;;;;;;;4305096;33;20111;-72
2022/06/30 02:06:59;;;;;;;7.03;3.30;;;;;;;;;;4305050;33;20111;-71
2022/06/30 02:09:24;;;;;;;6.18;3.40;;;;;;;;;;4305016;33;20107;-71
2022/06/30 02:12:45;;;;;;;10.48;3.50;;;;;;;;;;4305206;33;20503;-68
2022/06/30 02:14:36;;;;;;;12.43;3.97;;;;;;;;;;4304620;33;20106;-68
2022/06/30 02:17:03;;;;;;;11.40;4.30;;;;;;;;;;4304957;33;20126;-68
2022/06/30 02:19:29;;;;;;;10.63;4.57;;;;;;;;;;4304740;33;20107;-68
2022/06/30 02:21:55;;;;;;;17.35;5.50;;;;;;;;;;4304572;33;20206;-72
2022/06/30 02:24:20;;;;;;;13.88;5.22;;;;;;;;;;4304877;33;20108;-71
2022/06/30 02:26:46;;;;;;;12.25;5.10;;;;;;;;;;4304803;33;20134;-71
2022/06/30 02:29:12;;;;;;;13.73;5.87;;;;;;;;;;4291255;33;20133;-72
2022/06/30 02:31:38;;;;;;;12.30;5.20;;;;;;;;;;4304854;33;20119;-70
2022/06/30 02:34:04;;;;;;;14.20;5.45;;;;;;;;;;4290606;33;20538;-69
2022/06/30 02:36:30;;;;;;;12.32;5.43;;;;;;;;;;4279502;33;20166;-71
2022/06/30 02:38:56;;;;;;;14.52;6.20;;;;;;;;;;4299568;33;20110;-70
2022/06/30 02:41:22;;;;;;;15.15;5.78;;;;;;;;;;4276979;33;20116;-71
2022/06/30 02:43:48;;;;;;;14.95;5.72;;;;;;;;;;4290255;33;20100;-73
2022/06/30 02:46:14;;;;;;;12.65;5.68;;;;;;;;;;4290173;33;20536;-72
2022/06/30 02:48:40;;;;;;;18.60;6.68;;;;;;;;;;4289998;33;20122;-73
2022/06/30 02:51:06;;;;;;;22.60;9.00;;;;;;;;;;4289928;33;20563;-73
2022/06/30 02:53:32;;;;;;;23.42;7.87;;;;;;;;;;4289994;33;20115;-71
2022/06/30 02:55:58;;;;;;;16.40;7.03;;;;;;;;;;4290057;33;20194;-71
2022/06/30 02:58:25;;;;;;;21.30;6.85;;;;;;;;;;4276514;33;20199;-71
2022/06/30 03:00:51;;;;;;;10.65;5.00;;;;;;;;;;4289999;33;20136;-71
2022/06/30 03:03:17;;;;;;;9.70;4.37;;;;;;;;;;4276559;33;20146;-73
2022/06/30 03:05:42;;;;;;;9.18;4.18;;;;;;;;;;4296593;33;20122;-72
2022/06/30 03:08:09;;;;;;;8.48;3.33;;;;;;;;;;4291097;33;20137;-70
2022/06/30 03:10:35;;;;;;;14.10;4.10;;;;;;;;;;4300562;33;20111;-70
2022/06/30 03:13:01;;;;;;;8.88;3.97;;;;;;;;;;4294987;33;20202;-69
2022/06/30 03:15:27;;;;;;;9.50;4.12;;;;;;;;;;4304392;33;20518;-70
2022/06/30 03:17:53;;;;;;;15.68;4.90;;;;;;;;;;4278583;33;20125;-69
2022/06/30 03:20:19;;;;;;;11.18;4.90;;;;;;;;;;4304228;33;20108;-78
2022/06/30 03:22:45;;;;;;;11.93;5.18;;;;;;;;;;4291196;33;20214;-69
2022/06/30 03:25:11;;;;;;;13.27;5.50;;;;;;;;;;4303530;33;20138;-70
2022/06/30 03:27:37;;;;;;;22.90;7.65;;;;;;;;;;4304503;33;20217;-67
2022/06/30 03:30:03;;;;;;;19.77;6.43;;;;;;;;;;4304431;33;20628;-70
2022/06/30 03:32:29;;;;;;;20.95;6.37;;;;;;;;;;4292794;33;20112;-73
2022/06/30 03:34:55;;;;;;;17.02;7.28;;;;;;;;;;4289662;33;20553;-73
2022/06/30 03:37:21;;;;;;;21.33;7.65;;;;;;;;;;4289808;33;20250;-73
2022/06/30 03:39:47;;;;;;;18.15;6.78;;;;;;;;;;4289737;33;20621;-73
2022/06/30 03:42:13;;;;;;;8.60;3.53;;;;;;;;;;4289686;33;20202;-72
2022/06/30 03:44:39;;;;;;;8.07;3.00;;;;;;;;;;4288168;33;20207;-72
2022/06/30 03:47:05;;;;;;;5.45;2.90;;;;;;;;;;4276359;33;20126;-71
2022/06/30 03:49:31;;;;;;;9.05;3.00;;;;;;;;;;4288317;33;20187;-72
2022/06/30 03:51:57;;;;;;;6.95;2.53;;;;;;;;;;4289866;33;20123;-69
2022/06/30 03:54:23;;;;;;;9.80;2.70;;;;;;;;;;4276226;33;20211;-71
2022/06/30 03:56:49;;;;;;;4.00;2.58;;;;;;;;;;4276222;33;20146;-71
2022/06/30 03:59:15;;;;;;;10.77;2.80;;;;;;;;;;4289642;33;20099;-70
2022/06/30 04:01:41;;;;;;;5.53;2.00;;;;;;;;;;4276165;33;20539;-71
2022/06/30 04:04:07;;;;;;;6.07;2.12;;;;;;;;;;4289508;33;20107;-70
2022/06/30 04:06:34;;;;;;;2.72;2.00;;;;;;;;;;4289312;33;20111;-73
2022/06/30 04:09:00;;;;;;;3.45;1.92;;;;;;;;;;4289221;33;20131;-68
2022/06/30 04:11:26;;;;;;;3.30;2.05;;;;;;;;;;4289438;33;20452;-72
2022/06/30 04:13:52;;;;;;;2.85;1.92;;;;;;;;;;4287189;33;20111;-71
2022/06/30 04:16:18;;;;;;;4.37;2.15;;;;;;;;;;4274484;33;20146;-71
2022/06/30 04:18:44;;;;;;;4.18;1.90;;;;;;;;;;4289231;33;20259;-72
2022/06/30 04:21:11;;;;;;;12.20;2.20;;;;;;;;;;4287854;33;20119;-69
2022/06/30 04:23:37;;;;;;;6.57;2.37;;;;;;;;;;4287671;33;20111;-69
2022/06/30 04:26:03;;;;;;;4.78;1.80;;;;;;;;;;4275838;33;20240;-69
2022/06/30 04:28:29;;;;;;;4.50;2.50;;;;;;;;;;4289310;33;20103;-68
2022/06/30 04:33:40;;;;;;;6.70;1.92;;;;;;;;;;4288952;33;20191;-69
2022/06/30 04:36:06;;;;;;;4.65;2.10;;;;;;;;;;4289051;33;20194;-71
2022/06/30 04:38:32;;;;;;;2.80;1.40;;;;;;;;;;4289117;33;20218;-68
2022/06/30 04:43:42;;;;;;;6.25;2.30;;;;;;;;;;4289159;33;20448;-69
2022/06/30 04:46:08;;;;;;;7.20;2.83;;;;;;;;;;4289053;33;20206;-69
2022/06/30 04:48:34;;;;;;;7.37;2.00;;;;;;;;;;4288861;33;20283;-70
2022/06/30 04:51:00;;;;;;;1.90;1.70;;;;;;;;;;4263722;33;20507;-69
2022/06/30 04:53:26;;;;;;;5.75;2.50;;;;;;;;;;4275355;33;20258;-71
2022/06/30 04:55:52;;;;;;;3.08;2.08;;;;;;;;;;4288858;33;20260;-72
2022/06/30 04:58:18;;;;;;;11.10;2.17;;;;;;;;;;4288812;33;20136;-70
2022/06/30 05:00:44;;;;;;;3.17;2.05;;;;;;;;;;4288794;33;20118;-70
2022/06/30 05:03:10;;;;;;;3.95;2.30;;;;;;;;;;4275301;33;20135;-70
2022/06/30 05:05:36;;;;;;;6.03;1.87;;;;;;;;;;4288774;33;20126;-71
2022/06/30 05:08:02;;;;;;;4.35;1.67;;;;;;;;;;4288744;33;20463;-70
2022/06/30 05:10:28;;;;;;;5.35;2.00;;;;;;;;;;4288847;33;20099;-70
2022/06/30 05:12:54;;;;;;;5.35;1.83;;;;;;;;;;4288951;33;20526;-71
2022/06/30 05:15:20;;;;;;;3.15;1.70;;;;;;;;;;4288550;33;20095;-69
2022/06/30 05:17:46;;;;;;;3.97;2.08;;;;;;;;;;4275549;33;20131;-68
2022/06/30 05:20:12;;;;;;;1.40;1.20;;;;;;;;;;4275335;33;20111;-68
2022/06/30 05:22:39;;;;;;;2.58;1.17;;;;;;;;;;4288652;33;20107;-69
2022/06/30 05:27:49;;;;;;;1.08;0.98;;;;;;;;;;4288663;33;20111;-67
2022/06/30 05:30:16;;;;;;;3.22;1.80;;;;;;;;;;4288350;33;20519;-67
2022/06/30 05:32:42;;;;;;;5.40;1.62;;;;;;;;;;4288449;33;20119;-68
2022/06/30 05:35:09;;;;;;;2.50;1.37;;;;;;;;;;4274947;33;20108;-68
2022/06/30 05:37:35;;;;;;;1.20;1.20;;;;;;;;;;4288438;33;20142;-68
2022/06/30 05:40:03;;;;;;;1.77;1.30;;;;;;;;;;4274885;33;20118;-68
2022/06/30 05:42:29;;;;;;;0.90;0.90;;;;;;;;;;4288387;33;20130;-68
2022/06/30 05:44:55;;;;;;;2.58;1.65;;;;;;;;;;4288649;33;20175;-68
2022/06/30 05:47:21;;;;;;;1.12;1.12;;;;;;;;;;4288449;33;20100;-65
2022/06/30 05:49:47;;;;;;;3.20;1.50;;;;;;;;;;4261923;33;20103;-67
2022/06/30 05:52:13;;;;;;;1.42;1.33;;;;;;;;;;4288315;33;20107;-69
2022/06/30 05:54:39;;;;;;;1.10;1.10;;;;;;;;;;4300765;33;20088;-68
2022/06/30 05:57:06;;;;;;;1.33;1.20;;;;;;;;;;4290784;33;20448;-67
2022/06/30 05:59:33;;;;;;;1.23;1.12;;;;;;;;;;4277217;33;20099;-68
2022/06/30 06:02:00;;;;;;;3.15;1.75;;;;;;;;;;4290470;33;20084;-69
2022/06/30 06:04:26;;;;;;;1.50;1.30;;;;;;;;;;4277053;33;20107;-69
2022/06/30 06:06:52;;;;;;;2.37;1.35;;;;;;;;;;4290721;33;20102;-69
2022/06/30 06:09:19;;;;;;;1.87;1.30;;;;;;;;;;4290398;33;20115;-68
2022/06/30 06:11:45;;;;;;;4.50;1.67;;;;;;;;;;4290471;33;20131;-66
2022/06/30 06:14:11;;;;;;;2.42;1.40;;;;;;;;;;4277034;33;20214;-67
2022/06/30 06:16:37;;;;;;;1.95;0.90;;;;;;;;;;4290499;33;20538;-66
2022/06/30 06:19:03;;;;;;;5.93;1.77;;;;;;;;;;4276833;33;20203;-68
2022/06/30 06:21:29;;;;;;;2.33;1.90;;;;;;;;;;4290411;33;20458;-67
2022/06/30 06:23:55;;;;;;;3.85;1.90;;;;;;;;;;4290580;33;20095;-68
2022/06/30 06:26:21;;;;;;;3.75;2.08;;;;;;;;;;4276958;33;20259;-68
2022/06/30 06:29:05;;;;;;;10.82;1.98;;;;;;;;;;4290332;33;20610;-66
2022/06/30 06:31:39;;;;;;;3.03;1.65;;;;;;;;;;4290347;33;20096;-64
2022/06/30 06:34:06;;;;;;;2.78;1.58;;;;;;;;;;4276582;33;20130;-65
2022/06/30 06:36:32;;;;;;;5.85;1.77;;;;;;;;;;4290298;33;20094;-65
2022/06/30 06:38:59;;;;;;;4.00;2.25;;;;;;;;;;4289977;33;20103;-65
2022/06/30 06:41:25;;;;;;;1.70;1.60;;;;;;;;;;4290176;33;20099;-62
2022/06/30 06:43:51;;;;;;;3.53;1.50;;;;;;;;;;4290321;33;20095;-63
2022/06/30 06:46:18;;;;;;;2.30;1.90;;;;;;;;;;4290076;33;20138;-64
2022/06/30 06:48:44;;;;;;;3.05;2.00;;;;;;;;;;4290019;33;20462;-63
2022/06/30 06:51:10;;;;;;;4.93;1.60;;;;;;;;;;4289925;33;20523;-63
2022/06/30 06:53:37;;;;;;;1.65;1.55;;;;;;;;;;4289899;33;20119;-64
2022/06/30 06:56:04;;;;;;;4.32;1.67;;;;;;;;;;4289950;33;20094;-64
2022/06/30 06:58:30;;;;;;;3.60;1.70;;;;;;;;;;4289945;33;20135;-66
2022/06/30 07:00:58;;;;;;;8.38;1.90;;;;;;;;;;4276560;33;20123;-68
2022/06/30 07:03:24;;;;;;;6.18;2.00;;;;;;;;;;4289888;33;20175;-65
2022/06/30 07:05:50;;;;;;;2.80;1.92;;;;;;;;;;4289977;33;20098;-65
2022/06/30 07:08:16;;;;;;;5.97;2.03;;;;;;;;;;4289837;33;20130;-64
2022/06/30 07:10:42;;;;;;;3.20;1.80;;;;;;;;;;4276826;33;20154;-64
2022/06/30 07:13:08;;;;;;;10.57;2.10;;;;;;;;;;4289798;33;20471;-65
2022/06/30 07:15:34;;;;;;;7.15;2.22;;;;;;;;;;4289788;33;20206;-62
2022/06/30 07:18:00;;;;;;;3.47;1.87;;;;;;;;;;4290070;33;20114;-65
2022/06/30 07:20:26;;;;;;;4.07;2.10;;;;;;;;;;4289914;33;20127;-68
2022/06/30 07:22:52;;;;;;;2.33;1.70;;;;;;;;;;4289814;33;20150;-67
2022/06/30 07:25:18;;;;;;;3.62;2.33;;;;;;;;;;4289645;33;20243;-66
2022/06/30 07:27:44;;;;;;;1.83;1.58;;;;;;;;;;4289773;33;20130;-66
2022/06/30 07:30:11;;;;;;;5.07;1.65;;;;;;;;;;4289578;33;20550;-67
2022/06/30 07:32:37;;;;;;;6.20;2.15;;;;;;;;;;4276655;33;20127;-65
2022/06/30 07:35:05;;;;;;;6.95;1.90;;;;;;;;;;4289527;33;20115;-65
2022/06/30 07:37:31;;;;;;;2.65;1.75;;;;;;;;;;4289627;33;20210;-65
2022/06/30 07:39:57;;;;;;;2.05;1.60;;;;;;;;;;4289724;33;20126;-66
2022/06/30 07:42:23;;;;;;;3.05;1.80;;;;;;;;;;4289714;33;20560;-65
2022/06/30 07:44:49;;;;;;;3.62;1.95;;;;;;;;;;4289762;33;20118;-64
2022/06/30 07:47:15;;;;;;;5.12;1.92;;;;;;;;;;4289517;33;20133;-65
2022/06/30 07:49:41;;;;;;;5.15;2.10;;;;;;;;;;4289567;33;20096;-66
2022/06/30 07:52:07;;;;;;;4.12;2.10;;;;;;;;;;4289481;33;20122;-65
2022/06/30 07:54:33;;;;;;;5.85;1.90;;;;;;;;;;4289577;33;20096;-65
2022/06/30 07:56:59;;;;;;;7.60;2.30;;;;;;;;;;4289447;33;20130;-63
2022/06/30 07:59:25;;;;;;;3.58;1.62;;;;;;;;;;4289507;33;20428;-63
2022/06/30 08:01:51;;;;;;;4.00;1.92;;;;;;;;;;4289562;33;20132;-65
2022/06/30 08:04:17;;;;;;;3.65;1.90;;;;;;;;;;4289299;33;20546;-65
2022/06/30 08:06:44;;;;;;;3.50;1.80;;;;;;;;;;4289403;33;20194;-63
2022/06/30 08:09:13;;;;;;;9.18;2.33;;;;;;;;;;4252055;33;20136;-65
2022/06/30 08:11:39;;;;;;;1.92;1.60;;;;;;;;;;4288839;33;20118;-65
2022/06/30 08:14:06;;;;;;;4.22;1.60;;;;;;;;;;4264090;33;20241;-65
2022/06/30 08:16:32;;;;;;;1.95;1.48;;;;;;;;;;4276196;33;20126;-67
2022/06/30 08:18:58;;;;;;;1.60;1.50;;;;;;;;;;4289130;33;20123;-67
2022/06/30 08:21:24;;;;;;;2.30;1.60;;;;;;;;;;4289481;33;20609;-67
2022/06/30 08:23:49;;;;;;;1.00;1.00;;;;;;;;;;4275804;33;20111;-68
2022/06/30 08:26:16;;;;;;;4.93;1.85;;;;;;;;;;4263955;33;20146;-67
2022/06/30 08:28:42;;;;;;;1.12;1.10;;;;;;;;;;4289126;33;20436;-65
2022/06/30 08:31:08;;;;;;;2.92;1.67;;;;;;;;;;4275819;33;20130;-67
2022/06/30 08:33:34;;;;;;;2.05;1.58;;;;;;;;;;4288986;33;20100;-66
2022/06/30 08:36:00;;;;;;;5.10;1.55;;;;;;;;;;4289091;33;20439;-66
2022/06/30 08:38:27;;;;;;;2.65;1.65;;;;;;;;;;4289186;33;20136;-65
2022/06/30 08:43:37;;;;;;;2.37;1.40;;;;;;;;;;4267588;33;20130;-64
2022/06/30 08:46:04;;;;;;;1.10;1.10;;;;;;;;;;4289007;33;20122;-65
2022/06/30 08:48:30;;;;;;;3.30;2.03;;;;;;;;;;4288840;33;20447;-65
2022/06/30 08:51:06;;;;;;;2.37;1.65;;;;;;;;;;4288986;33;20213;-62
2022/06/30 08:53:53;;;;;;;1.85;1.62;;;;;;;;;;4288854;33;20483;-66
2022/06/30 08:56:19;;;;;;;4.55;1.67;;;;;;;;;;4275728;33;20494;-65
2022/06/30 08:58:46;;;;;;;2.15;1.95;;;;;;;;;;4263681;33;20112;-66
2022/06/30 09:01:12;;;;;;;12.73;2.80;;;;;;;;;;4275453;33;20559;-65
2022/06/30 09:03:39;;;;;;;3.80;2.30;;;;;;;;;;4275600;33;20135;-66
2022/06/30 09:06:05;;;;;;;3.95;2.20;;;;;;;;;;4275437;33;20547;-67
2022/06/30 09:08:32;;;;;;;5.05;1.92;;;;;;;;;;4263301;33;20186;-66
2022/06/30 09:10:58;;;;;;;1.60;1.50;;;;;;;;;;4288821;33;20119;-67
2022/06/30 09:13:25;;;;;;;2.30;1.87;;;;;;;;;;4288850;33;20489;-66
2022/06/30 09:15:52;;;;;;;2.42;1.90;;;;;;;;;;4251849;33;20179;-67
2022/06/30 09:18:26;;;;;;;2.12;1.65;;;;;;;;;;4275158;33;20543;-67
2022/06/30 09:20:52;;;;;;;5.22;2.10;;;;;;;;;;4251525;33;20608;-67
2022/06/30 09:23:19;;;;;;;3.42;1.95;;;;;;;;;;4263439;33;20227;-67
2022/06/30 09:25:51;;;;;;;1.80;1.70;;;;;;;;;;4277667;33;20524;-66
2022/06/30 09:28:41;;;;;;;4.65;2.35;;;;;;;;;;4265283;33;20252;-66
2022/06/30 09:31:08;;;;;;;3.85;1.75;;;;;;;;;;4277476;33;20131;-67
2022/06/30 09:33:39;;;;;;;3.00;2.15;;;;;;;;;;4277506;33;20123;-66
2022/06/30 09:36:26;;;;;;;1.80;1.70;;;;;;;;;;4265588;33;20491;-66
2022/06/30 09:39:04;;;;;;;5.85;1.58;;;;;;;;;;4290613;33;20195;-66
2022/06/30 09:41:32;;;;;;;2.62;1.75;;;;;;;;;;4268015;33;20179;-65
2022/06/30 09:43:58;;;;;;;6.32;2.12;;;;;;;;;;4265207;33;20099;-65
2022/06/30 09:46:25;;;;;;;3.40;2.00;;;;;;;;;;4277353;33;20115;-66
2022/06/30 09:48:51;;;;;;;2.35;1.60;;;;;;;;;;4265413;33;20129;-64
2022/06/30 09:51:18;;;;;;;5.25;1.77;;;;;;;;;;4253665;33;21042;-66
2022/06/30 09:54:05;;;;;;;2.83;2.03;;;;;;;;;;4290804;33;20111;-67
2022/06/30 09:56:31;;;;;;;1.30;1.20;;;;;;;;;;4290788;33;20201;-66
2022/06/30 09:58:58;;;;;;;5.75;1.60;;;;;;;;;;4277261;33;20111;-67
2022/06/30 10:01:23;;;;;;;4.00;1.80;;;;;;;;;;4290579;33;20160;-64
2022/06/30 10:03:59;;;;;;;2.67;1.50;;;;;;;;;;4277166;33;20123;-66
2022/06/30 10:06:24;;;;;;;;;;;;;;;;;;4277841;33;20119;-64
2022/06/30 10:08:53;;;;;;;2.37;1.65;;;;;;;;;;4277020;33;19999;-66
2022/06/30 10:11:19;;;;;;;1.50;1.37;;;;;;;;;;4277016;33;20214;-64
2022/06/30 10:13:47;;;;;;;3.67;2.10;;;;;;;;;;4265200;33;20202;-67
2022/06/30 10:16:13;;;;;;;1.50;1.40;;;;;;;;;;4253390;33;20148;-66
2022/06/30 10:18:40;;;;;;;1.75;1.33;;;;;;;;;;4290472;33;20511;-67
2022/06/30 10:21:08;;;;;;;2.97;1.70;;;;;;;;;;4253272;33;20108;-67
2022/06/30 10:23:34;;;;;;;5.12;1.48;;;;;;;;;;4277156;33;20638;-66
2022/06/30 10:26:02;;;;;;;2.67;1.55;;;;;;;;;;4290366;33;20124;-67
2022/06/30 10:28:30;;;;;;;1.33;1.27;;;;;;;;;;4277076;33;20128;-67
2022/06/30 10:31:10;;;;;;;1.58;1.48;;;;;;;;;;4277344;33;20096;-67
2022/06/30 10:33:45;;;;;;;1.45;1.35;;;;;;;;;;4276807;33;20195;-67
2022/06/30 10:36:30;;;;;;;1.50;1.40;;;;;;;;;;4289956;33;20118;-67
2022/06/30 10:39:20;;;;;;;2.67;1.30;;;;;;;;;;4276963;33;20142;-67
2022/06/30 10:41:48;;;;;;;1.40;1.30;;;;;;;;;;4290320;33;20193;-67
2022/06/30 10:44:20;;;;;;;2.62;1.75;;;;;;;;;;4276721;33;20119;-67
2022/06/30 10:46:45;;;;;;;2.87;1.67;;;;;;;;;;4290228;33;20115;-67
2022/06/30 10:49:13;;;;;;;1.98;1.33;;;;;;;;;;4276594;33;20217;-67
2022/06/30 10:51:40;;;;;;;1.42;1.30;;;;;;;;;;4290158;33;20108;-67
2022/06/30 10:54:06;;;;;;;3.22;1.65;;;;;;;;;;4276779;33;20130;-67
2022/06/30 10:56:53;;;;;;;1.58;1.17;;;;;;;;;;4277072;33;20121;-67
2022/06/30 10:59:34;;;;;;;2.60;1.58;;;;;;;;;;4290122;33;20195;-67
2022/06/30 11:02:15;;;;;;;2.37;1.50;;;;;;;;;;4290134;33;20113;-67
2022/06/30 11:04:49;;;;;;;1.10;1.00;;;;;;;;;;4276562;33;20199;-64
2022/06/30 11:07:20;;;;;;;3.08;1.45;;;;;;;;;;4289968;33;20108;-65
2022/06/30 11:09:49;;;;;;;4.22;1.67;;;;;;;;;;4289872;33;20114;-67
2022/06/30 11:12:18;;;;;;;1.37;1.27;;;;;;;;;;4276638;33;20103;-66
2022/06/30 11:14:48;;;;;;;5.30;2.30;;;;;;;;;;4290050;33;20128;-64
2022/06/30 11:17:15;;;;;;;4.28;2.00;;;;;;;;;;4289908;33;20432;-65
2022/06/30 11:19:41;;;;;;;3.30;1.90;;;;;;;;;;4290146;33;20114;-64
2022/06/30 11:22:08;;;;;;;3.72;1.95;;;;;;;;;;4276443;33;20142;-65
2022/06/30 11:24:38;;;;;;;3.60;2.12;;;;;;;;;;4289653;33;20135;-64
2022/06/30 11:27:17;;;;;;;5.10;1.87;;;;;;;;;;4264398;33;20128;-64
2022/06/30 11:29:47;;;;;;;3.30;1.80;;;;;;;;;;4289883;33;20106;-64
2022/06/30 11:32:13;;;;;;;2.42;1.85;;;;;;;;;;4289981;33;20106;-63
2022/06/30 11:34:40;;;;;;;4.03;2.05;;;;;;;;;;4292335;33;20550;-66
2022/06/30 11:37:07;;;;;;;7.37;2.00;;;;;;;;;;4304121;33;20122;-62
2022/06/30 11:39:34;;;;;;;1.80;1.48;;;;;;;;;;4290544;33;20110;-68
2022/06/30 11:42:06;;;;;;;2.50;1.73;;;;;;;;;;4278709;33;20515;-66
2022/06/30 11:44:34;;;;;;;3.87;1.80;;;;;;;;;;4290719;33;20167;-65
2022/06/30 11:47:04;;;;;;;3.62;2.00;;;;;;;;;;4289976;33;20095;-65
2022/06/30 11:49:40;;;;;;;9.25;1.90;;;;;;;;;;4304128;33;20114;-65
2022/06/30 11:52:24;;;;;;;3.80;2.20;;;;;;;;;;4304308;33;20099;-67
2022/06/30 11:54:53;;;;;;;3.45;2.10;;;;;;;;;;4279041;33;20206;-66
2022/06/30 11:57:21;;;;;;;3.45;2.20;;;;;;;;;;4304000;33;20099;-67
2022/06/30 11:59:49;;;;;;;3.08;1.90;;;;;;;;;;4303920;33;20114;-69
2022/06/30 12:02:15;;;;;;;3.72;2.05;;;;;;;;;;4303893;33;20115;-65
2022/06/30 12:04:42;;;;;;;4.57;2.12;;;;;;;;;;4290799;33;20100;-67
2022/06/30 12:07:13;;;;;;;4.72;1.85;;;;;;;;;;4303775;33;20100;-66
2022/06/30 12:09:44;;;;;;;2.28;1.77;;;;;;;;;;4303804;33;20111;-65
2022/06/30 12:12:11;;;;;;;3.62;1.80;;;;;;;;;;4303950;33;20190;-66
2022/06/30 12:14:39;;;;;;;2.25;1.90;;;;;;;;;;4303719;33;20129;-67
2022/06/30 12:17:11;;;;;;;7.40;2.15;;;;;;;;;;4303744;33;20129;-65
2022/06/30 12:19:38;;;;;;;3.53;1.77;;;;;;;;;;4290237;33;20740;-65
2022/06/30 12:22:13;;;;;;;5.60;2.33;;;;;;;;;;4303839;33;20109;-64
2022/06/30 12:24:41;;;;;;;4.53;1.80;;;;;;;;;;4278515;33;20171;-64
2022/06/30 12:27:08;;;;;;;8.25;2.10;;;;;;;;;;4290430;33;20191;-65
2022/06/30 12:29:34;;;;;;;4.75;2.00;;;;;;;;;;4290215;33;20123;-66
2022/06/30 12:32:06;;;;;;;2.37;1.77;;;;;;;;;;4303623;33;20126;-66
2022/06/30 12:34:47;;;;;;;2.60;1.90;;;;;;;;;;4303614;33;20133;-66
2022/06/30 12:37:13;;;;;;;1.67;1.55;;;;;;;;;;4303826;33;20110;-66
2022/06/30 12:39:43;;;;;;;2.00;1.80;;;;;;;;;;4303425;33;20123;-64
2022/06/30 12:42:09;;;;;;;11.02;2.30;;;;;;;;;;4303785;33;20199;-66
2022/06/30 12:44:37;;;;;;;2.42;1.85;;;;;;;;;;4303561;33;20533;-67
2022/06/30 12:47:08;;;;;;;2.80;1.90;;;;;;;;;;4303512;33;20118;-66
2022/06/30 12:49:35;;;;;;;11.73;2.20;;;;;;;;;;4303312;33;20187;-66
2022/06/30 12:52:13;;;;;;;5.78;2.10;;;;;;;;;;4303558;33;20166;-66
2022/06/30 12:54:52;;;;;;;10.93;2.75;;;;;;;;;;4303521;33;20595;-65
2022/06/30 12:57:18;;;;;;;21.65;3.28;;;;;;;;;;4303599;33;20138;-66
2022/06/30 12:59:50;;;;;;;17.85;2.92;;;;;;;;;;4305359;33;20519;-64
2022/06/30 13:02:17;;;;;;;8.68;2.40;;;;;;;;;;4305461;33;20127;-65
2022/06/30 13:04:52;;;;;;;4.37;1.83;;;;;;;;;;4305519;33;20107;-66
2022/06/30 13:07:20;;;;;;;3.08;1.80;;;;;;;;;;4305186;33;20187;-66
2022/06/30 13:09:48;;;;;;;5.87;1.60;;;;;;;;;;4305482;33;20119;-65
2022/06/30 13:12:16;;;;;;;1.70;1.60;;;;;;;;;;4292366;33;20129;-66
2022/06/30 13:14:43;;;;;;;3.33;1.60;;;;;;;;;;4305193;33;20428;-67
2022/06/30 13:17:10;;;;;;;1.73;1.55;;;;;;;;;;4305556;33;20121;-65
2022/06/30 13:19:37;;;;;;;2.20;1.70;;;;;;;;;;4305336;33;20760;-65
2022/06/30 13:22:04;;;;;;;2.62;1.70;;;;;;;;;;4292189;33;20476;-66
2022/06/30 13:24:30;;;;;;;3.12;1.77;;;;;;;;;;4291772;33;20629;-68
2022/06/30 13:27:02;;;;;;;4.78;2.22;;;;;;;;;;4305320;33;20131;-64
2022/06/30 13:29:29;;;;;;;4.10;2.37;;;;;;;;;;4305307;33;20523;-64
2022/06/30 13:31:55;;;;;;;8.80;2.33;;;;;;;;;;4291788;33;20198;-63
2022/06/30 13:34:21;;;;;;;7.18;3.03;;;;;;;;;;4298240;33;20130;-65
2022/06/30 13:36:48;;;;;;;7.00;3.25;;;;;;;;;;4297358;33;20449;-66
2022/06/30 13:39:15;;;;;;;7.55;2.60;;;;;;;;;;4284735;33;20186;-64
2022/06/30 13:41:42;;;;;;;5.45;2.20;;;;;;;;;;4285546;33;20127;-64
2022/06/30 13:44:08;;;;;;;5.62;2.10;;;;;;;;;;4296855;33;20142;-65
2022/06/30 13:46:35;;;;;;;3.97;2.25;;;;;;;;;;4283967;33;20527;-65
2022/06/30 13:49:01;;;;;;;5.15;2.00;;;;;;;;;;4298093;33;20274;-63
2022/06/30 13:51:28;;;;;;;4.03;2.17;;;;;;;;;;4297648;33;20177;-73
2022/06/30 13:53:55;;;;;;;3.15;1.98;;;;;;;;;;4290957;33;20294;-68
2022/06/30 13:56:23;;;;;;;3.83;1.65;;;;;;;;;;4298528;33;20102;-67
2022/06/30 13:59:12;;;;;;;6.85;1.98;;;;;;;;;;4291819;33;20138;-69
2022/06/30 14:01:42;;;;;;;3.40;1.70;;;;;;;;;;4301933;33;20525;-66
2022/06/30 14:04:08;;;;;;;1.92;1.73;;;;;;;;;;4305821;33;20126;-67
2022/06/30 14:06:34;;;;;;;4.57;2.03;;;;;;;;;;4287202;33;20130;-67
2022/06/30 14:09:00;;;;;;;2.17;1.80;;;;;;;;;;4295419;33;20535;-65
2022/06/30 14:11:26;;;;;;;5.40;1.95;;;;;;;;;;4296257;33;20111;-65
2022/06/30 14:13:52;;;;;;;5.12;2.10;;;;;;;;;;4304786;33;20106;-68
2022/06/30 14:16:26;;;;;;;1.92;1.75;;;;;;;;;;4296240;33;20131;-67
2022/06/30 14:18:52;;;;;;;2.72;1.62;;;;;;;;;;4291600;33;20218;-64
2022/06/30 14:21:19;;;;;;;3.42;2.05;;;;;;;;;;4296496;33;20221;-65
2022/06/30 14:23:45;;;;;;;3.17;1.92;;;;;;;;;;4291267;33;20145;-65
2022/06/30 14:26:12;;;;;;;3.22;2.00;;;;;;;;;;4303755;33;20577;-67
2022/06/30 14:28:41;;;;;;;8.50;1.95;;;;;;;;;;4304631;33;20113;-66
2022/06/30 14:31:07;;;;;;;7.00;1.80;;;;;;;;;;4304396;33;20495;-66
2022/06/30 14:33:33;;;;;;;11.02;2.12;;;;;;;;;;4298770;33;20514;-66
2022/06/30 14:35:59;;;;;;;10.55;2.30;;;;;;;;;;4300553;33;20091;-65
2022/06/30 14:38:26;;;;;;;6.62;1.85;;;;;;;;;;4295312;33;20092;-67
2022/06/30 14:40:52;;;;;;;6.00;2.45;;;;;;;;;;4288646;33;20118;-66
2022/06/30 14:43:18;;;;;;;5.30;1.90;;;;;;;;;;4283141;33;20123;-67
2022/06/30 14:45:45;;;;;;;3.42;1.80;;;;;;;;;;4297255;33;20111;-67
2022/06/30 14:48:11;;;;;;;5.15;2.60;;;;;;;;;;4298554;33;20177;-67
2022/06/30 14:50:37;;;;;;;3.42;2.50;;;;;;;;;;4296419;33;20211;-67
2022/06/30 14:53:04;;;;;;;5.10;2.42;;;;;;;;;;4298339;33;20114;-67
2022/06/30 14:55:30;;;;;;;4.20;2.08;;;;;;;;;;4298559;33;20470;-68
2022/06/30 14:57:57;;;;;;;2.87;2.30;;;;;;;;;;4284562;33;20542;-66
2022/06/30 15:00:25;;;;;;;6.85;2.45;;;;;;;;;;4296256;33;20456;-66
2022/06/30 15:02:52;;;;;;;5.55;2.33;;;;;;;;;;4296881;33;20100;-65
2022/06/30 15:05:27;;;;;;;5.87;2.25;;;;;;;;;;4296204;33;20131;-67
2022/06/30 15:07:53;;;;;;;4.75;2.92;;;;;;;;;;4296206;33;20099;-67
2022/06/30 15:10:20;;;;;;;8.38;2.83;;;;;;;;;;4282527;33;20216;-66
2022/06/30 15:12:46;;;;;;;3.85;2.40;;;;;;;;;;4281027;33;20502;-67
2022/06/30 15:15:12;;;;;;;5.78;2.00;;;;;;;;;;4288336;33;20110;-67
2022/06/30 15:17:38;;;;;;;3.47;1.98;;;;;;;;;;4289919;33;20138;-72
2022/06/30 15:20:05;;;;;;;2.80;2.00;;;;;;;;;;4276588;33;20100;-65
2022/06/30 15:25:16;;;;;;;4.05;2.10;;;;;;;;;;4290362;33;20111;-66
2022/06/30 15:27:42;;;;;;;3.78;2.37;;;;;;;;;;4292299;33;20127;-66
2022/06/30 15:30:09;;;;;;;4.50;2.78;;;;;;;;;;4290331;33;20202;-76